sensor_id;sensor_type;location;lat;lon;timestamp;P1;durP1;ratioP1;P2;durP2;ratioP2
17259;SDS011;8746;49.230;9.220;2022-12-31T00:00:29;1.13;;;1.10;;
17259;SDS011;8746;49.230;9.220;2022-12-31T00:02:54;1.70;;;1.20;;
17259;SDS011;8746;49.230;9.220;2022-12-31T00:05:19;3.73;;;1.20;;
17259;SDS011;8746;49.230;9.220;2022-12-31T00:07:46;3.17;;;1.50;;
17259;SDS011;8746;49.230;9.220;2022-12-31T00:10:12;2.30;;;1.10;;
17259;SDS011;8746;49.230;9.220;2022-12-31T00:12:37;5.63;;;1.30;;
17259;SDS011;8746;49.230;9.220;2022-12-31T00:15:03;2.80;;;1.00;;
17259;SDS011;8746;49.230;9.220;2022-12-31T00:17:28;1.50;;;1.20;;
17259;SDS011;8746;49.230;9.220;2022-12-31T00:19:54;1.00;;;1.00;;
17259;SDS011;8746;49.230;9.220;2022-12-31T00:22:19;0.90;;;0.90;;
17259;SDS011;8746;49.230;9.220;2022-12-31T00:24:45;2.50;;;1.30;;
17259;SDS011;8746;49.230;9.220;2022-12-31T00:27:10;1.10;;;1.10;;
17259;SDS011;8746;49.230;9.220;2022-12-31T00:29:36;2.53;;;1.10;;
17259;SDS011;8746;49.230;9.220;2022-12-31T00:32:01;1.20;;;1.10;;
17259;SDS011;8746;49.230;9.220;2022-12-31T00:34:26;1.20;;;1.20;;
17259;SDS011;8746;49.230;9.220;2022-12-31T00:36:52;0.90;;;0.90;;
17259;SDS011;8746;49.230;9.220;2022-12-31T00:39:17;0.87;;;0.87;;
17259;SDS011;8746;49.230;9.220;2022-12-31T00:41:42;1.20;;;1.10;;
17259;SDS011;8746;49.230;9.220;2022-12-31T00:44:10;1.27;;;1.17;;
17259;SDS011;8746;49.230;9.220;2022-12-31T00:46:36;1.00;;;1.00;;
17259;SDS011;8746;49.230;9.220;2022-12-31T00:49:02;1.43;;;1.00;;
17259;SDS011;8746;49.230;9.220;2022-12-31T00:51:27;0.97;;;0.97;;
17259;SDS011;8746;49.230;9.220;2022-12-31T00:53:53;2.07;;;1.00;;
17259;SDS011;8746;49.230;9.220;2022-12-31T00:56:21;3.33;;;1.20;;
17259;SDS011;8746;49.230;9.220;2022-12-31T00:58:49;1.13;;;1.03;;
17259;SDS011;8746;49.230;9.220;2022-12-31T01:01:16;1.10;;;1.10;;
17259;SDS011;8746;49.230;9.220;2022-12-31T01:03:47;0.93;;;0.93;;
17259;SDS011;8746;49.230;9.220;2022-12-31T01:06:14;1.30;;;1.20;;
17259;SDS011;8746;49.230;9.220;2022-12-31T01:08:40;2.20;;;1.10;;
17259;SDS011;8746;49.230;9.220;2022-12-31T01:11:05;1.23;;;1.03;;
17259;SDS011;8746;49.230;9.220;2022-12-31T01:13:47;0.93;;;0.93;;
17259;SDS011;8746;49.230;9.220;2022-12-31T01:16:15;1.53;;;0.80;;
17259;SDS011;8746;49.230;9.220;2022-12-31T01:18:42;1.10;;;1.00;;
17259;SDS011;8746;49.230;9.220;2022-12-31T01:21:08;0.70;;;0.70;;
17259;SDS011;8746;49.230;9.220;2022-12-31T01:23:34;1.43;;;0.90;;
17259;SDS011;8746;49.230;9.220;2022-12-31T01:26:01;0.80;;;0.80;;
17259;SDS011;8746;49.230;9.220;2022-12-31T01:28:28;0.83;;;0.83;;
17259;SDS011;8746;49.230;9.220;2022-12-31T01:30:54;0.80;;;0.80;;
17259;SDS011;8746;49.230;9.220;2022-12-31T01:33:20;0.70;;;0.70;;
17259;SDS011;8746;49.230;9.220;2022-12-31T01:35:45;2.30;;;0.70;;
17259;SDS011;8746;49.230;9.220;2022-12-31T01:38:11;0.90;;;0.90;;
17259;SDS011;8746;49.230;9.220;2022-12-31T01:40:36;0.67;;;0.67;;
17259;SDS011;8746;49.230;9.220;2022-12-31T01:43:14;0.77;;;0.60;;
17259;SDS011;8746;49.230;9.220;2022-12-31T01:45:42;0.60;;;0.60;;
17259;SDS011;8746;49.230;9.220;2022-12-31T01:48:10;1.17;;;1.03;;
17259;SDS011;8746;49.230;9.220;2022-12-31T01:50:38;0.80;;;0.80;;
17259;SDS011;8746;49.230;9.220;2022-12-31T01:53:05;0.60;;;0.60;;
17259;SDS011;8746;49.230;9.220;2022-12-31T01:55:34;0.60;;;0.60;;
17259;SDS011;8746;49.230;9.220;2022-12-31T01:58:13;0.50;;;0.50;;
17259;SDS011;8746;49.230;9.220;2022-12-31T02:00:41;1.47;;;0.60;;
17259;SDS011;8746;49.230;9.220;2022-12-31T02:03:08;0.83;;;0.60;;
17259;SDS011;8746;49.230;9.220;2022-12-31T02:05:38;1.10;;;0.77;;
17259;SDS011;8746;49.230;9.220;2022-12-31T02:08:10;0.70;;;0.70;;
17259;SDS011;8746;49.230;9.220;2022-12-31T02:10:35;0.50;;;0.50;;
17259;SDS011;8746;49.230;9.220;2022-12-31T02:13:01;0.77;;;0.73;;
17259;SDS011;8746;49.230;9.220;2022-12-31T02:15:34;0.67;;;0.67;;
17259;SDS011;8746;49.230;9.220;2022-12-31T02:18:11;1.07;;;0.60;;
17259;SDS011;8746;49.230;9.220;2022-12-31T02:25:58;0.80;;;0.60;;
17259;SDS011;8746;49.230;9.220;2022-12-31T02:31:07;0.60;;;0.60;;
17259;SDS011;8746;49.230;9.220;2022-12-31T02:33:41;2.20;;;0.87;;
17259;SDS011;8746;49.230;9.220;2022-12-31T02:36:16;2.10;;;0.80;;
17259;SDS011;8746;49.230;9.220;2022-12-31T02:38:47;1.50;;;0.67;;
17259;SDS011;8746;49.230;9.220;2022-12-31T02:41:14;0.50;;;0.50;;
17259;SDS011;8746;49.230;9.220;2022-12-31T02:44:02;1.40;;;0.77;;
17259;SDS011;8746;49.230;9.220;2022-12-31T02:46:45;0.50;;;0.50;;
17259;SDS011;8746;49.230;9.220;2022-12-31T02:49:20;0.50;;;0.50;;
17259;SDS011;8746;49.230;9.220;2022-12-31T02:51:59;0.73;;;0.70;;
17259;SDS011;8746;49.230;9.220;2022-12-31T02:54:49;0.60;;;0.60;;
17259;SDS011;8746;49.230;9.220;2022-12-31T02:57:34;2.10;;;0.53;;
17259;SDS011;8746;49.230;9.220;2022-12-31T03:00:05;0.70;;;0.60;;
17259;SDS011;8746;49.230;9.220;2022-12-31T03:02:52;0.63;;;0.53;;
17259;SDS011;8746;49.230;9.220;2022-12-31T03:05:20;0.60;;;0.60;;
17259;SDS011;8746;49.230;9.220;2022-12-31T03:07:48;0.63;;;0.63;;
17259;SDS011;8746;49.230;9.220;2022-12-31T03:10:14;0.60;;;0.60;;
17259;SDS011;8746;49.230;9.220;2022-12-31T03:12:40;1.00;;;0.70;;
17259;SDS011;8746;49.230;9.220;2022-12-31T03:15:20;0.73;;;0.70;;
17259;SDS011;8746;49.230;9.220;2022-12-31T03:17:51;1.33;;;0.57;;
17259;SDS011;8746;49.230;9.220;2022-12-31T03:20:28;0.60;;;0.60;;
17259;SDS011;8746;49.230;9.220;2022-12-31T03:23:32;1.33;;;0.80;;
17259;SDS011;8746;49.230;9.220;2022-12-31T03:26:00;0.50;;;0.50;;
17259;SDS011;8746;49.230;9.220;2022-12-31T03:28:28;0.67;;;0.67;;
17259;SDS011;8746;49.230;9.220;2022-12-31T03:30:56;1.60;;;0.60;;
17259;SDS011;8746;49.230;9.220;2022-12-31T03:33:23;0.80;;;0.63;;
17259;SDS011;8746;49.230;9.220;2022-12-31T03:35:49;0.60;;;0.60;;
17259;SDS011;8746;49.230;9.220;2022-12-31T03:38:15;0.63;;;0.63;;
17259;SDS011;8746;49.230;9.220;2022-12-31T03:40:43;0.60;;;0.60;;
17259;SDS011;8746;49.230;9.220;2022-12-31T03:43:11;0.77;;;0.60;;
17259;SDS011;8746;49.230;9.220;2022-12-31T03:45:36;1.07;;;0.87;;
17259;SDS011;8746;49.230;9.220;2022-12-31T03:48:02;1.03;;;0.70;;
17259;SDS011;8746;49.230;9.220;2022-12-31T03:50:29;0.70;;;0.70;;
17259;SDS011;8746;49.230;9.220;2022-12-31T03:52:54;0.50;;;0.50;;
17259;SDS011;8746;49.230;9.220;2022-12-31T03:55:20;3.60;;;0.70;;
17259;SDS011;8746;49.230;9.220;2022-12-31T03:57:46;0.70;;;0.60;;
17259;SDS011;8746;49.230;9.220;2022-12-31T04:00:12;0.67;;;0.67;;
17259;SDS011;8746;49.230;9.220;2022-12-31T04:02:42;0.60;;;0.60;;
17259;SDS011;8746;49.230;9.220;2022-12-31T04:05:08;0.70;;;0.70;;
17259;SDS011;8746;49.230;9.220;2022-12-31T04:07:34;0.60;;;0.60;;
17259;SDS011;8746;49.230;9.220;2022-12-31T04:09:59;0.60;;;0.60;;
17259;SDS011;8746;49.230;9.220;2022-12-31T04:12:25;0.70;;;0.70;;
17259;SDS011;8746;49.230;9.220;2022-12-31T04:14:50;0.50;;;0.50;;
17259;SDS011;8746;49.230;9.220;2022-12-31T04:17:15;0.87;;;0.80;;
17259;SDS011;8746;49.230;9.220;2022-12-31T04:19:41;0.90;;;0.70;;
17259;SDS011;8746;49.230;9.220;2022-12-31T04:22:07;2.03;;;0.90;;
17259;SDS011;8746;49.230;9.220;2022-12-31T04:24:32;0.70;;;0.70;;
17259;SDS011;8746;49.230;9.220;2022-12-31T04:26:58;0.70;;;0.70;;
17259;SDS011;8746;49.230;9.220;2022-12-31T04:29:23;0.77;;;0.70;;
17259;SDS011;8746;49.230;9.220;2022-12-31T04:31:49;0.97;;;0.63;;
17259;SDS011;8746;49.230;9.220;2022-12-31T04:34:14;0.80;;;0.60;;
17259;SDS011;8746;49.230;9.220;2022-12-31T04:36:40;0.67;;;0.67;;
17259;SDS011;8746;49.230;9.220;2022-12-31T04:39:05;1.03;;;0.80;;
17259;SDS011;8746;49.230;9.220;2022-12-31T04:41:30;2.20;;;1.33;;
17259;SDS011;8746;49.230;9.220;2022-12-31T04:43:57;1.53;;;0.60;;
17259;SDS011;8746;49.230;9.220;2022-12-31T04:46:24;0.73;;;0.73;;
17259;SDS011;8746;49.230;9.220;2022-12-31T04:48:56;0.70;;;0.70;;
17259;SDS011;8746;49.230;9.220;2022-12-31T04:51:22;1.53;;;0.80;;
17259;SDS011;8746;49.230;9.220;2022-12-31T04:53:48;1.07;;;0.80;;
17259;SDS011;8746;49.230;9.220;2022-12-31T04:56:14;0.63;;;0.63;;
17259;SDS011;8746;49.230;9.220;2022-12-31T04:58:40;0.83;;;0.70;;
17259;SDS011;8746;49.230;9.220;2022-12-31T05:01:05;0.67;;;0.67;;
17259;SDS011;8746;49.230;9.220;2022-12-31T05:03:31;0.87;;;0.87;;
17259;SDS011;8746;49.230;9.220;2022-12-31T05:06:00;0.70;;;0.70;;
17259;SDS011;8746;49.230;9.220;2022-12-31T05:08:30;2.43;;;1.20;;
17259;SDS011;8746;49.230;9.220;2022-12-31T05:10:56;1.63;;;1.10;;
17259;SDS011;8746;49.230;9.220;2022-12-31T05:13:22;2.07;;;0.73;;
17259;SDS011;8746;49.230;9.220;2022-12-31T05:15:48;1.30;;;0.80;;
17259;SDS011;8746;49.230;9.220;2022-12-31T05:18:14;0.93;;;0.50;;
17259;SDS011;8746;49.230;9.220;2022-12-31T05:20:40;0.60;;;0.60;;
17259;SDS011;8746;49.230;9.220;2022-12-31T05:23:06;0.70;;;0.67;;
17259;SDS011;8746;49.230;9.220;2022-12-31T05:25:32;0.60;;;0.60;;
17259;SDS011;8746;49.230;9.220;2022-12-31T05:27:57;0.70;;;0.60;;
17259;SDS011;8746;49.230;9.220;2022-12-31T05:30:22;0.70;;;0.70;;
17259;SDS011;8746;49.230;9.220;2022-12-31T05:32:48;1.93;;;0.90;;
17259;SDS011;8746;49.230;9.220;2022-12-31T05:35:14;0.60;;;0.60;;
17259;SDS011;8746;49.230;9.220;2022-12-31T05:37:40;0.70;;;0.70;;
17259;SDS011;8746;49.230;9.220;2022-12-31T05:40:05;0.73;;;0.73;;
17259;SDS011;8746;49.230;9.220;2022-12-31T05:42:31;1.03;;;0.80;;
17259;SDS011;8746;49.230;9.220;2022-12-31T05:44:57;0.67;;;0.67;;
17259;SDS011;8746;49.230;9.220;2022-12-31T05:47:22;0.60;;;0.60;;
17259;SDS011;8746;49.230;9.220;2022-12-31T05:49:48;0.60;;;0.60;;
17259;SDS011;8746;49.230;9.220;2022-12-31T05:52:13;0.80;;;0.80;;
17259;SDS011;8746;49.230;9.220;2022-12-31T05:54:39;0.90;;;0.90;;
17259;SDS011;8746;49.230;9.220;2022-12-31T05:57:05;2.10;;;0.90;;
17259;SDS011;8746;49.230;9.220;2022-12-31T05:59:30;0.80;;;0.80;;
17259;SDS011;8746;49.230;9.220;2022-12-31T06:01:56;0.80;;;0.80;;
17259;SDS011;8746;49.230;9.220;2022-12-31T06:04:21;1.73;;;0.90;;
17259;SDS011;8746;49.230;9.220;2022-12-31T06:06:47;1.33;;;0.70;;
17259;SDS011;8746;49.230;9.220;2022-12-31T06:09:13;0.70;;;0.70;;
17259;SDS011;8746;49.230;9.220;2022-12-31T06:11:39;1.47;;;0.80;;
17259;SDS011;8746;49.230;9.220;2022-12-31T06:14:04;2.63;;;1.07;;
17259;SDS011;8746;49.230;9.220;2022-12-31T06:16:30;0.67;;;0.67;;
17259;SDS011;8746;49.230;9.220;2022-12-31T06:18:55;0.70;;;0.70;;
17259;SDS011;8746;49.230;9.220;2022-12-31T06:21:20;0.80;;;0.80;;
17259;SDS011;8746;49.230;9.220;2022-12-31T06:23:47;0.60;;;0.60;;
17259;SDS011;8746;49.230;9.220;2022-12-31T06:26:13;2.97;;;0.87;;
17259;SDS011;8746;49.230;9.220;2022-12-31T06:28:39;0.93;;;0.80;;
17259;SDS011;8746;49.230;9.220;2022-12-31T06:31:05;1.53;;;0.70;;
17259;SDS011;8746;49.230;9.220;2022-12-31T06:33:33;0.80;;;0.80;;
17259;SDS011;8746;49.230;9.220;2022-12-31T06:36:00;0.80;;;0.80;;
17259;SDS011;8746;49.230;9.220;2022-12-31T06:38:28;1.13;;;1.00;;
17259;SDS011;8746;49.230;9.220;2022-12-31T06:40:54;1.13;;;0.80;;
17259;SDS011;8746;49.230;9.220;2022-12-31T06:43:20;0.80;;;0.80;;
17259;SDS011;8746;49.230;9.220;2022-12-31T06:45:45;1.10;;;1.10;;
17259;SDS011;8746;49.230;9.220;2022-12-31T06:48:11;0.80;;;0.80;;
17259;SDS011;8746;49.230;9.220;2022-12-31T06:50:39;0.83;;;0.77;;
17259;SDS011;8746;49.230;9.220;2022-12-31T06:53:05;0.80;;;0.80;;
17259;SDS011;8746;49.230;9.220;2022-12-31T06:55:31;1.40;;;0.83;;
17259;SDS011;8746;49.230;9.220;2022-12-31T06:57:57;0.80;;;0.80;;
17259;SDS011;8746;49.230;9.220;2022-12-31T07:00:22;2.73;;;0.70;;
17259;SDS011;8746;49.230;9.220;2022-12-31T07:05:41;1.10;;;0.80;;
17259;SDS011;8746;49.230;9.220;2022-12-31T07:08:28;0.73;;;0.73;;
17259;SDS011;8746;49.230;9.220;2022-12-31T07:11:15;0.80;;;0.80;;
17259;SDS011;8746;49.230;9.220;2022-12-31T07:16:28;1.13;;;0.80;;
17259;SDS011;8746;49.230;9.220;2022-12-31T07:21:38;2.40;;;0.70;;
17259;SDS011;8746;49.230;9.220;2022-12-31T07:24:05;0.70;;;0.70;;
17259;SDS011;8746;49.230;9.220;2022-12-31T07:32:22;1.13;;;0.90;;
17259;SDS011;8746;49.230;9.220;2022-12-31T07:40:47;1.87;;;1.10;;
17259;SDS011;8746;49.230;9.220;2022-12-31T07:43:33;0.90;;;0.90;;
17259;SDS011;8746;49.230;9.220;2022-12-31T07:48:39;1.17;;;1.00;;
17259;SDS011;8746;49.230;9.220;2022-12-31T07:51:05;0.80;;;0.80;;
17259;SDS011;8746;49.230;9.220;2022-12-31T07:53:33;1.17;;;1.00;;
17259;SDS011;8746;49.230;9.220;2022-12-31T07:55:59;0.90;;;0.90;;
17259;SDS011;8746;49.230;9.220;2022-12-31T08:01:18;1.00;;;1.00;;
17259;SDS011;8746;49.230;9.220;2022-12-31T08:03:54;0.90;;;0.90;;
17259;SDS011;8746;49.230;9.220;2022-12-31T08:11:59;1.00;;;0.90;;
17259;SDS011;8746;49.230;9.220;2022-12-31T08:14:26;1.17;;;0.80;;
17259;SDS011;8746;49.230;9.220;2022-12-31T08:16:53;0.87;;;0.77;;
17259;SDS011;8746;49.230;9.220;2022-12-31T08:30:18;1.10;;;0.80;;
17259;SDS011;8746;49.230;9.220;2022-12-31T08:35:31;0.77;;;0.77;;
17259;SDS011;8746;49.230;9.220;2022-12-31T08:38:33;0.73;;;0.73;;
17259;SDS011;8746;49.230;9.220;2022-12-31T08:43:44;1.23;;;0.93;;
17259;SDS011;8746;49.230;9.220;2022-12-31T08:46:22;1.20;;;1.10;;
17259;SDS011;8746;49.230;9.220;2022-12-31T08:48:53;0.90;;;0.90;;
17259;SDS011;8746;49.230;9.220;2022-12-31T08:51:20;1.97;;;1.03;;
17259;SDS011;8746;49.230;9.220;2022-12-31T08:53:47;0.90;;;0.90;;
17259;SDS011;8746;49.230;9.220;2022-12-31T08:56:21;1.10;;;1.10;;
17259;SDS011;8746;49.230;9.220;2022-12-31T09:01:31;1.43;;;0.90;;
17259;SDS011;8746;49.230;9.220;2022-12-31T09:04:12;1.27;;;0.87;;
17259;SDS011;8746;49.230;9.220;2022-12-31T09:06:52;1.50;;;0.90;;
17259;SDS011;8746;49.230;9.220;2022-12-31T09:14:44;1.73;;;0.87;;
17259;SDS011;8746;49.230;9.220;2022-12-31T09:22:56;0.80;;;0.80;;
17259;SDS011;8746;49.230;9.220;2022-12-31T09:25:23;1.10;;;0.90;;
17259;SDS011;8746;49.230;9.220;2022-12-31T09:30:27;2.33;;;0.70;;
17259;SDS011;8746;49.230;9.220;2022-12-31T09:35:53;1.80;;;0.93;;
17259;SDS011;8746;49.230;9.220;2022-12-31T09:38:26;0.80;;;0.80;;
17259;SDS011;8746;49.230;9.220;2022-12-31T10:00:04;0.90;;;0.90;;
17259;SDS011;8746;49.230;9.220;2022-12-31T10:02:54;1.50;;;1.00;;
17259;SDS011;8746;49.230;9.220;2022-12-31T10:09:05;1.20;;;1.10;;
17259;SDS011;8746;49.230;9.220;2022-12-31T10:19:58;1.10;;;1.00;;
17259;SDS011;8746;49.230;9.220;2022-12-31T10:23:01;1.58;;;1.10;;
17259;SDS011;8746;49.230;9.220;2022-12-31T10:25:49;0.90;;;0.90;;
17259;SDS011;8746;49.230;9.220;2022-12-31T10:28:51;1.50;;;1.30;;
17259;SDS011;8746;49.230;9.220;2022-12-31T10:59:21;2.60;;;1.58;;
17259;SDS011;8746;49.230;9.220;2022-12-31T11:30:50;1.83;;;0.85;;
17259;SDS011;8746;49.230;9.220;2022-12-31T11:53:42;0.82;;;0.75;;
17259;SDS011;8746;49.230;9.220;2022-12-31T11:56:33;0.73;;;0.73;;
17259;SDS011;8746;49.230;9.220;2022-12-31T11:59:05;0.88;;;0.80;;
17259;SDS011;8746;49.230;9.220;2022-12-31T12:04:12;1.00;;;0.90;;
17259;SDS011;8746;49.230;9.220;2022-12-31T12:06:38;0.80;;;0.80;;
17259;SDS011;8746;49.230;9.220;2022-12-31T12:09:05;0.80;;;0.80;;
17259;SDS011;8746;49.230;9.220;2022-12-31T12:11:36;0.90;;;0.90;;
17259;SDS011;8746;49.230;9.220;2022-12-31T12:14:19;1.10;;;1.08;;
17259;SDS011;8746;49.230;9.220;2022-12-31T12:16:45;1.70;;;0.80;;
17259;SDS011;8746;49.230;9.220;2022-12-31T12:19:15;1.02;;;0.85;;
17259;SDS011;8746;49.230;9.220;2022-12-31T12:21:45;0.88;;;0.77;;
17259;SDS011;8746;49.230;9.220;2022-12-31T12:24:18;1.95;;;0.80;;
17259;SDS011;8746;49.230;9.220;2022-12-31T12:26:49;0.60;;;0.60;;
17259;SDS011;8746;49.230;9.220;2022-12-31T12:29:19;1.58;;;1.00;;
17259;SDS011;8746;49.230;9.220;2022-12-31T12:31:56;0.90;;;0.90;;
17259;SDS011;8746;49.230;9.220;2022-12-31T12:36:58;0.80;;;0.80;;
17259;SDS011;8746;49.230;9.220;2022-12-31T12:39:25;1.95;;;0.80;;
17259;SDS011;8746;49.230;9.220;2022-12-31T12:42:09;1.65;;;0.93;;
17259;SDS011;8746;49.230;9.220;2022-12-31T12:44:39;0.95;;;0.85;;
17259;SDS011;8746;49.230;9.220;2022-12-31T12:47:07;1.67;;;0.70;;
17259;SDS011;8746;49.230;9.220;2022-12-31T12:49:38;0.82;;;0.75;;
17259;SDS011;8746;49.230;9.220;2022-12-31T13:01:00;0.90;;;0.90;;
17259;SDS011;8746;49.230;9.220;2022-12-31T13:03:44;1.95;;;1.40;;
17259;SDS011;8746;49.230;9.220;2022-12-31T13:12:00;0.73;;;0.73;;
17259;SDS011;8746;49.230;9.220;2022-12-31T13:26:04;0.70;;;0.70;;
17259;SDS011;8746;49.230;9.220;2022-12-31T13:28:45;1.27;;;1.00;;
17259;SDS011;8746;49.230;9.220;2022-12-31T13:31:13;0.95;;;0.80;;
17259;SDS011;8746;49.230;9.220;2022-12-31T13:33:45;1.05;;;0.90;;
17259;SDS011;8746;49.230;9.220;2022-12-31T13:36:18;0.70;;;0.70;;
17259;SDS011;8746;49.230;9.220;2022-12-31T13:38:47;0.98;;;0.90;;
17259;SDS011;8746;49.230;9.220;2022-12-31T13:41:24;1.20;;;1.10;;
17259;SDS011;8746;49.230;9.220;2022-12-31T13:44:02;1.92;;;1.13;;
17259;SDS011;8746;49.230;9.220;2022-12-31T13:46:46;1.20;;;1.10;;
17259;SDS011;8746;49.230;9.220;2022-12-31T13:52:23;1.40;;;1.30;;
17259;SDS011;8746;49.230;9.220;2022-12-31T13:58:00;2.65;;;1.40;;
17259;SDS011;8746;49.230;9.220;2022-12-31T14:00:44;1.83;;;1.10;;
17259;SDS011;8746;49.230;9.220;2022-12-31T14:08:56;2.22;;;1.10;;
17259;SDS011;8746;49.230;9.220;2022-12-31T14:14:24;1.20;;;1.10;;
17259;SDS011;8746;49.230;9.220;2022-12-31T14:17:00;0.90;;;0.90;;
17259;SDS011;8746;49.230;9.220;2022-12-31T14:19:39;1.27;;;1.20;;
17259;SDS011;8746;49.230;9.220;2022-12-31T14:22:31;2.05;;;1.55;;
17259;SDS011;8746;49.230;9.220;2022-12-31T14:25:03;3.70;;;3.20;;
17259;SDS011;8746;49.230;9.220;2022-12-31T14:27:41;5.10;;;3.05;;
17259;SDS011;8746;49.230;9.220;2022-12-31T14:38:04;2.00;;;1.80;;
17259;SDS011;8746;49.230;9.220;2022-12-31T14:51:20;2.42;;;2.00;;
17259;SDS011;8746;49.230;9.220;2022-12-31T14:53:54;5.75;;;3.60;;
17259;SDS011;8746;49.230;9.220;2022-12-31T14:56:28;7.95;;;7.15;;
17259;SDS011;8746;49.230;9.220;2022-12-31T14:59:28;10.50;;;8.85;;
17259;SDS011;8746;49.230;9.220;2022-12-31T15:01:55;7.35;;;6.65;;
17259;SDS011;8746;49.230;9.220;2022-12-31T15:04:32;7.07;;;6.43;;
17259;SDS011;8746;49.230;9.220;2022-12-31T15:07:12;6.55;;;5.95;;
17259;SDS011;8746;49.230;9.220;2022-12-31T15:12:43;5.20;;;4.07;;
17259;SDS011;8746;49.230;9.220;2022-12-31T15:20:43;5.30;;;4.40;;
17259;SDS011;8746;49.230;9.220;2022-12-31T15:26:03;7.47;;;6.68;;
17259;SDS011;8746;49.230;9.220;2022-12-31T15:28:34;7.53;;;6.72;;
17259;SDS011;8746;49.230;9.220;2022-12-31T15:31:06;6.93;;;6.23;;
17259;SDS011;8746;49.230;9.220;2022-12-31T15:36:27;8.43;;;7.57;;
17259;SDS011;8746;49.230;9.220;2022-12-31T15:40:02;9.23;;;6.60;;
17259;SDS011;8746;49.230;9.220;2022-12-31T15:42:01;7.30;;;6.30;;
17259;SDS011;8746;49.230;9.220;2022-12-31T15:44:31;8.60;;;7.73;;
17259;SDS011;8746;49.230;9.220;2022-12-31T15:49:45;9.63;;;8.13;;
17259;SDS011;8746;49.230;9.220;2022-12-31T15:52:15;8.83;;;7.20;;
17259;SDS011;8746;49.230;9.220;2022-12-31T15:54:49;7.43;;;6.50;;
17259;SDS011;8746;49.230;9.220;2022-12-31T15:57:39;10.23;;;7.70;;
17259;SDS011;8746;49.230;9.220;2022-12-31T16:00:14;9.70;;;6.77;;
17259;SDS011;8746;49.230;9.220;2022-12-31T16:02:47;8.50;;;7.20;;
17259;SDS011;8746;49.230;9.220;2022-12-31T16:07:46;9.23;;;7.43;;
17259;SDS011;8746;49.230;9.220;2022-12-31T16:10:14;9.07;;;7.87;;
17259;SDS011;8746;49.230;9.220;2022-12-31T16:12:48;9.20;;;8.13;;
17259;SDS011;8746;49.230;9.220;2022-12-31T16:15:21;9.47;;;6.67;;
17259;SDS011;8746;49.230;9.220;2022-12-31T16:17:57;8.53;;;6.67;;
17259;SDS011;8746;49.230;9.220;2022-12-31T16:20:30;7.50;;;6.30;;
17259;SDS011;8746;49.230;9.220;2022-12-31T16:22:59;7.93;;;7.13;;
17259;SDS011;8746;49.230;9.220;2022-12-31T16:25:27;11.53;;;7.90;;
17259;SDS011;8746;49.230;9.220;2022-12-31T16:27:55;14.03;;;11.20;;
17259;SDS011;8746;49.230;9.220;2022-12-31T16:30:25;42.40;;;36.80;;
17259;SDS011;8746;49.230;9.220;2022-12-31T16:32:54;70.53;;;60.27;;
17259;SDS011;8746;49.230;9.220;2022-12-31T16:35:27;59.47;;;52.97;;
17259;SDS011;8746;49.230;9.220;2022-12-31T16:38:02;70.13;;;62.47;;
17259;SDS011;8746;49.230;9.220;2022-12-31T16:40:35;112.10;;;99.63;;
17259;SDS011;8746;49.230;9.220;2022-12-31T16:43:00;116.30;;;103.73;;
17259;SDS011;8746;49.230;9.220;2022-12-31T16:47:57;106.50;;;89.97;;
17259;SDS011;8746;49.230;9.220;2022-12-31T16:50:30;91.57;;;81.33;;
17259;SDS011;8746;49.230;9.220;2022-12-31T16:53:01;89.53;;;79.67;;
17259;SDS011;8746;49.230;9.220;2022-12-31T16:55:29;86.30;;;75.77;;
17259;SDS011;8746;49.230;9.220;2022-12-31T16:57:59;91.20;;;81.17;;
17259;SDS011;8746;49.230;9.220;2022-12-31T17:00:35;72.63;;;61.07;;
17259;SDS011;8746;49.230;9.220;2022-12-31T17:05:26;64.13;;;55.50;;
17259;SDS011;8746;49.230;9.220;2022-12-31T17:07:52;62.67;;;53.90;;
17259;SDS011;8746;49.230;9.220;2022-12-31T17:10:22;64.67;;;53.83;;
17259;SDS011;8746;49.230;9.220;2022-12-31T17:13:00;82.27;;;66.67;;
17259;SDS011;8746;49.230;9.220;2022-12-31T17:15:40;347.30;;;248.73;;
17259;SDS011;8746;49.230;9.220;2022-12-31T17:18:09;76.10;;;61.17;;
17259;SDS011;8746;49.230;9.220;2022-12-31T17:20:43;73.50;;;56.97;;
17259;SDS011;8746;49.230;9.220;2022-12-31T17:23:10;75.77;;;56.43;;
17259;SDS011;8746;49.230;9.220;2022-12-31T17:25:55;55.07;;;42.67;;
17259;SDS011;8746;49.230;9.220;2022-12-31T17:28:23;72.23;;;55.07;;
17259;SDS011;8746;49.230;9.220;2022-12-31T17:30:50;60.10;;;45.20;;
17259;SDS011;8746;49.230;9.220;2022-12-31T17:35:42;58.87;;;43.77;;
17259;SDS011;8746;49.230;9.220;2022-12-31T17:38:17;62.67;;;47.40;;
17259;SDS011;8746;49.230;9.220;2022-12-31T17:40:49;63.13;;;51.50;;
17259;SDS011;8746;49.230;9.220;2022-12-31T17:43:31;63.07;;;51.30;;
17259;SDS011;8746;49.230;9.220;2022-12-31T17:45:58;70.27;;;56.57;;
17259;SDS011;8746;49.230;9.220;2022-12-31T17:48:24;69.73;;;52.67;;
17259;SDS011;8746;49.230;9.220;2022-12-31T17:50:53;70.37;;;56.90;;
17259;SDS011;8746;49.230;9.220;2022-12-31T17:53:22;79.93;;;61.17;;
17259;SDS011;8746;49.230;9.220;2022-12-31T17:55:53;84.60;;;65.33;;
17259;SDS011;8746;49.230;9.220;2022-12-31T17:58:28;83.90;;;64.80;;
17259;SDS011;8746;49.230;9.220;2022-12-31T18:00:57;105.63;;;77.97;;
17259;SDS011;8746;49.230;9.220;2022-12-31T18:03:22;122.07;;;93.20;;
17259;SDS011;8746;49.230;9.220;2022-12-31T18:05:48;178.87;;;137.13;;
17259;SDS011;8746;49.230;9.220;2022-12-31T18:08:13;191.80;;;140.83;;
17259;SDS011;8746;49.230;9.220;2022-12-31T18:10:39;152.97;;;113.87;;
17259;SDS011;8746;49.230;9.220;2022-12-31T18:13:09;139.57;;;107.87;;
17259;SDS011;8746;49.230;9.220;2022-12-31T18:15:39;140.73;;;101.80;;
17259;SDS011;8746;49.230;9.220;2022-12-31T18:18:20;140.33;;;107.00;;
17259;SDS011;8746;49.230;9.220;2022-12-31T18:20:51;141.97;;;107.07;;
17259;SDS011;8746;49.230;9.220;2022-12-31T18:23:19;153.47;;;114.70;;
17259;SDS011;8746;49.230;9.220;2022-12-31T18:25:49;155.97;;;121.03;;
17259;SDS011;8746;49.230;9.220;2022-12-31T18:28:15;187.33;;;136.00;;
17259;SDS011;8746;49.230;9.220;2022-12-31T18:30:40;197.47;;;140.20;;
17259;SDS011;8746;49.230;9.220;2022-12-31T18:33:08;188.37;;;140.77;;
17259;SDS011;8746;49.230;9.220;2022-12-31T18:35:36;196.13;;;142.37;;
17259;SDS011;8746;49.230;9.220;2022-12-31T18:38:01;183.03;;;129.30;;
17259;SDS011;8746;49.230;9.220;2022-12-31T18:40:27;190.23;;;137.30;;
17259;SDS011;8746;49.230;9.220;2022-12-31T18:42:52;196.87;;;148.17;;
17259;SDS011;8746;49.230;9.220;2022-12-31T18:45:18;181.80;;;132.70;;
17259;SDS011;8746;49.230;9.220;2022-12-31T18:47:45;176.30;;;136.67;;
17259;SDS011;8746;49.230;9.220;2022-12-31T18:50:14;178.07;;;134.03;;
17259;SDS011;8746;49.230;9.220;2022-12-31T18:52:40;167.97;;;126.40;;
17259;SDS011;8746;49.230;9.220;2022-12-31T18:55:15;122.30;;;88.60;;
17259;SDS011;8746;49.230;9.220;2022-12-31T18:57:48;94.27;;;67.43;;
17259;SDS011;8746;49.230;9.220;2022-12-31T19:00:18;92.50;;;62.20;;
17259;SDS011;8746;49.230;9.220;2022-12-31T19:02:43;102.63;;;75.77;;
17259;SDS011;8746;49.230;9.220;2022-12-31T19:05:15;113.03;;;84.37;;
17259;SDS011;8746;49.230;9.220;2022-12-31T19:07:44;113.13;;;86.07;;
17259;SDS011;8746;49.230;9.220;2022-12-31T19:10:11;101.60;;;74.73;;
17259;SDS011;8746;49.230;9.220;2022-12-31T19:12:37;95.17;;;70.93;;
17259;SDS011;8746;49.230;9.220;2022-12-31T19:15:08;41.63;;;30.27;;
17259;SDS011;8746;49.230;9.220;2022-12-31T19:17:47;68.83;;;50.43;;
17259;SDS011;8746;49.230;9.220;2022-12-31T19:20:12;47.07;;;33.70;;
17259;SDS011;8746;49.230;9.220;2022-12-31T19:22:37;34.93;;;24.47;;
17259;SDS011;8746;49.230;9.220;2022-12-31T19:25:06;33.03;;;23.83;;
17259;SDS011;8746;49.230;9.220;2022-12-31T19:27:41;30.93;;;23.30;;
17259;SDS011;8746;49.230;9.220;2022-12-31T19:30:10;16.60;;;12.80;;
17259;SDS011;8746;49.230;9.220;2022-12-31T19:32:40;13.80;;;12.13;;
17259;SDS011;8746;49.230;9.220;2022-12-31T19:35:07;9.23;;;8.23;;
17259;SDS011;8746;49.230;9.220;2022-12-31T19:37:34;10.67;;;8.43;;
17259;SDS011;8746;49.230;9.220;2022-12-31T19:40:00;10.70;;;9.00;;
17259;SDS011;8746;49.230;9.220;2022-12-31T19:42:25;11.37;;;8.93;;
17259;SDS011;8746;49.230;9.220;2022-12-31T19:44:51;10.10;;;8.20;;